sensor_id;sensor_type;location;lat;lon;timestamp;P1;durP1;ratioP1;P2;durP2;ratioP2
55732;SDS011;41637;52.364;9.910;2023-04-06T00:00:38;18.10;;;15.10;;
55732;SDS011;41637;52.364;9.910;2023-04-06T00:03:04;19.20;;;15.50;;
55732;SDS011;41637;52.364;9.910;2023-04-06T00:05:32;20.90;;;16.10;;
55732;SDS011;41637;52.364;9.910;2023-04-06T00:07:58;19.70;;;15.80;;
55732;SDS011;41637;52.364;9.910;2023-04-06T00:10:25;21.00;;;16.50;;
55732;SDS011;41637;52.364;9.910;2023-04-06T00:12:52;21.90;;;17.40;;
55732;SDS011;41637;52.364;9.910;2023-04-06T00:15:20;21.50;;;17.40;;
55732;SDS011;41637;52.364;9.910;2023-04-06T00:17:47;19.60;;;15.70;;
55732;SDS011;41637;52.364;9.910;2023-04-06T00:20:14;17.80;;;14.80;;
55732;SDS011;41637;52.364;9.910;2023-04-06T00:22:41;18.80;;;15.10;;
55732;SDS011;41637;52.364;9.910;2023-04-06T00:25:09;18.70;;;15.90;;
55732;SDS011;41637;52.364;9.910;2023-04-06T00:27:37;18.80;;;15.30;;
55732;SDS011;41637;52.364;9.910;2023-04-06T00:30:05;18.90;;;15.30;;
55732;SDS011;41637;52.364;9.910;2023-04-06T00:32:35;21.70;;;15.80;;
55732;SDS011;41637;52.364;9.910;2023-04-06T00:35:03;20.60;;;15.50;;
55732;SDS011;41637;52.364;9.910;2023-04-06T00:37:31;18.70;;;14.50;;
55732;SDS011;41637;52.364;9.910;2023-04-06T00:39:58;19.00;;;14.80;;
55732;SDS011;41637;52.364;9.910;2023-04-06T00:42:24;21.20;;;15.00;;
55732;SDS011;41637;52.364;9.910;2023-04-06T00:44:56;19.50;;;15.40;;
55732;SDS011;41637;52.364;9.910;2023-04-06T00:47:24;20.00;;;15.10;;
55732;SDS011;41637;52.364;9.910;2023-04-06T00:49:52;19.30;;;15.60;;
55732;SDS011;41637;52.364;9.910;2023-04-06T00:52:20;19.90;;;14.60;;
55732;SDS011;41637;52.364;9.910;2023-04-06T00:54:47;18.90;;;14.60;;
55732;SDS011;41637;52.364;9.910;2023-04-06T00:57:15;18.10;;;15.30;;
55732;SDS011;41637;52.364;9.910;2023-04-06T00:59:42;18.70;;;14.90;;
55732;SDS011;41637;52.364;9.910;2023-04-06T01:02:09;18.30;;;14.90;;
55732;SDS011;41637;52.364;9.910;2023-04-06T01:04:38;19.60;;;14.70;;
55732;SDS011;41637;52.364;9.910;2023-04-06T01:07:06;16.00;;;13.70;;
55732;SDS011;41637;52.364;9.910;2023-04-06T01:09:32;19.20;;;14.10;;
55732;SDS011;41637;52.364;9.910;2023-04-06T01:11:59;17.10;;;13.90;;
55732;SDS011;41637;52.364;9.910;2023-04-06T01:14:26;18.10;;;13.90;;
55732;SDS011;41637;52.364;9.910;2023-04-06T01:16:53;17.80;;;13.70;;
55732;SDS011;41637;52.364;9.910;2023-04-06T01:19:20;18.50;;;13.50;;
55732;SDS011;41637;52.364;9.910;2023-04-06T01:21:48;16.80;;;13.10;;
55732;SDS011;41637;52.364;9.910;2023-04-06T01:24:16;17.40;;;13.50;;
55732;SDS011;41637;52.364;9.910;2023-04-06T01:26:44;18.40;;;13.60;;
55732;SDS011;41637;52.364;9.910;2023-04-06T01:29:11;16.90;;;13.10;;
55732;SDS011;41637;52.364;9.910;2023-04-06T01:31:39;18.30;;;13.20;;
55732;SDS011;41637;52.364;9.910;2023-04-06T01:34:06;18.00;;;13.50;;
55732;SDS011;41637;52.364;9.910;2023-04-06T01:36:33;16.60;;;13.70;;
55732;SDS011;41637;52.364;9.910;2023-04-06T01:38:59;16.20;;;13.50;;
55732;SDS011;41637;52.364;9.910;2023-04-06T01:41:26;16.70;;;12.90;;
55732;SDS011;41637;52.364;9.910;2023-04-06T01:43:53;16.10;;;13.30;;
55732;SDS011;41637;52.364;9.910;2023-04-06T01:46:22;16.00;;;13.40;;
55732;SDS011;41637;52.364;9.910;2023-04-06T01:48:49;17.70;;;13.10;;
55732;SDS011;41637;52.364;9.910;2023-04-06T01:51:16;16.70;;;12.80;;
55732;SDS011;41637;52.364;9.910;2023-04-06T01:53:43;16.40;;;13.10;;
55732;SDS011;41637;52.364;9.910;2023-04-06T01:56:10;19.70;;;13.70;;
55732;SDS011;41637;52.364;9.910;2023-04-06T01:58:37;18.00;;;13.10;;
55732;SDS011;41637;52.364;9.910;2023-04-06T02:01:03;16.10;;;13.10;;
55732;SDS011;41637;52.364;9.910;2023-04-06T02:03:30;16.70;;;13.70;;
55732;SDS011;41637;52.364;9.910;2023-04-06T02:05:57;15.70;;;12.50;;
55732;SDS011;41637;52.364;9.910;2023-04-06T02:08:24;16.30;;;13.20;;
55732;SDS011;41637;52.364;9.910;2023-04-06T02:10:51;19.90;;;13.30;;
55732;SDS011;41637;52.364;9.910;2023-04-06T02:13:18;16.30;;;13.00;;
55732;SDS011;41637;52.364;9.910;2023-04-06T02:15:45;15.40;;;12.70;;
55732;SDS011;41637;52.364;9.910;2023-04-06T02:18:12;17.30;;;12.90;;
55732;SDS011;41637;52.364;9.910;2023-04-06T02:20:38;17.80;;;13.10;;
55732;SDS011;41637;52.364;9.910;2023-04-06T02:23:06;17.00;;;12.80;;
55732;SDS011;41637;52.364;9.910;2023-04-06T02:25:33;16.30;;;12.60;;
55732;SDS011;41637;52.364;9.910;2023-04-06T02:28:00;16.80;;;12.10;;
55732;SDS011;41637;52.364;9.910;2023-04-06T02:30:27;16.50;;;11.80;;
55732;SDS011;41637;52.364;9.910;2023-04-06T02:32:55;16.50;;;11.90;;
55732;SDS011;41637;52.364;9.910;2023-04-06T02:35:22;16.70;;;11.60;;
55732;SDS011;41637;52.364;9.910;2023-04-06T02:37:48;16.60;;;10.70;;
55732;SDS011;41637;52.364;9.910;2023-04-06T02:40:15;15.90;;;11.60;;
55732;SDS011;41637;52.364;9.910;2023-04-06T02:42:42;14.90;;;10.80;;
55732;SDS011;41637;52.364;9.910;2023-04-06T02:45:08;16.80;;;11.50;;
55732;SDS011;41637;52.364;9.910;2023-04-06T02:47:35;14.90;;;10.90;;
55732;SDS011;41637;52.364;9.910;2023-04-06T02:50:02;14.70;;;11.50;;
55732;SDS011;41637;52.364;9.910;2023-04-06T02:52:30;14.20;;;10.80;;
55732;SDS011;41637;52.364;9.910;2023-04-06T02:54:56;15.10;;;11.20;;
55732;SDS011;41637;52.364;9.910;2023-04-06T02:57:23;15.00;;;11.20;;
55732;SDS011;41637;52.364;9.910;2023-04-06T02:59:50;13.80;;;10.90;;
55732;SDS011;41637;52.364;9.910;2023-04-06T03:02:16;15.00;;;10.30;;
55732;SDS011;41637;52.364;9.910;2023-04-06T03:04:43;15.60;;;9.90;;
55732;SDS011;41637;52.364;9.910;2023-04-06T03:07:10;13.70;;;10.20;;
55732;SDS011;41637;52.364;9.910;2023-04-06T03:09:37;14.30;;;10.70;;
55732;SDS011;41637;52.364;9.910;2023-04-06T03:12:04;15.90;;;10.00;;
55732;SDS011;41637;52.364;9.910;2023-04-06T03:14:35;13.00;;;9.90;;
55732;SDS011;41637;52.364;9.910;2023-04-06T03:17:01;15.30;;;10.40;;
55732;SDS011;41637;52.364;9.910;2023-04-06T03:19:28;14.50;;;10.20;;
55732;SDS011;41637;52.364;9.910;2023-04-06T03:21:55;14.20;;;9.90;;
55732;SDS011;41637;52.364;9.910;2023-04-06T03:24:22;13.70;;;9.50;;
55732;SDS011;41637;52.364;9.910;2023-04-06T03:26:48;13.40;;;10.00;;
55732;SDS011;41637;52.364;9.910;2023-04-06T03:29:15;14.50;;;10.30;;
55732;SDS011;41637;52.364;9.910;2023-04-06T03:31:42;14.30;;;10.60;;
55732;SDS011;41637;52.364;9.910;2023-04-06T03:34:09;15.90;;;11.00;;
55732;SDS011;41637;52.364;9.910;2023-04-06T03:36:36;14.90;;;10.80;;
55732;SDS011;41637;52.364;9.910;2023-04-06T03:39:03;14.50;;;10.90;;
55732;SDS011;41637;52.364;9.910;2023-04-06T03:41:29;17.10;;;10.90;;
55732;SDS011;41637;52.364;9.910;2023-04-06T03:43:56;15.60;;;10.90;;
55732;SDS011;41637;52.364;9.910;2023-04-06T03:46:26;14.60;;;10.50;;
55732;SDS011;41637;52.364;9.910;2023-04-06T03:48:52;14.90;;;10.80;;
55732;SDS011;41637;52.364;9.910;2023-04-06T03:51:19;14.70;;;11.10;;
55732;SDS011;41637;52.364;9.910;2023-04-06T03:53:47;16.10;;;10.90;;
55732;SDS011;41637;52.364;9.910;2023-04-06T03:56:13;16.00;;;11.00;;
55732;SDS011;41637;52.364;9.910;2023-04-06T03:58:40;13.10;;;10.70;;
55732;SDS011;41637;52.364;9.910;2023-04-06T04:01:07;14.90;;;10.60;;
55732;SDS011;41637;52.364;9.910;2023-04-06T04:03:34;15.20;;;10.60;;
55732;SDS011;41637;52.364;9.910;2023-04-06T04:06:01;15.90;;;10.90;;
55732;SDS011;41637;52.364;9.910;2023-04-06T04:08:28;16.00;;;10.30;;
55732;SDS011;41637;52.364;9.910;2023-04-06T04:10:55;15.20;;;10.80;;
55732;SDS011;41637;52.364;9.910;2023-04-06T04:13:21;14.90;;;11.20;;
55732;SDS011;41637;52.364;9.910;2023-04-06T04:15:48;14.70;;;10.60;;
55732;SDS011;41637;52.364;9.910;2023-04-06T04:18:15;14.00;;;9.80;;
55732;SDS011;41637;52.364;9.910;2023-04-06T04:20:42;14.20;;;10.10;;
55732;SDS011;41637;52.364;9.910;2023-04-06T04:23:08;15.50;;;10.50;;
55732;SDS011;41637;52.364;9.910;2023-04-06T04:25:35;15.70;;;10.30;;
55732;SDS011;41637;52.364;9.910;2023-04-06T04:28:02;14.50;;;9.90;;
55732;SDS011;41637;52.364;9.910;2023-04-06T04:30:29;14.40;;;9.80;;
55732;SDS011;41637;52.364;9.910;2023-04-06T04:32:55;13.30;;;9.50;;
55732;SDS011;41637;52.364;9.910;2023-04-06T04:35:22;13.60;;;9.10;;
55732;SDS011;41637;52.364;9.910;2023-04-06T04:37:49;13.40;;;9.40;;
55732;SDS011;41637;52.364;9.910;2023-04-06T04:40:16;13.70;;;9.50;;
55732;SDS011;41637;52.364;9.910;2023-04-06T04:42:43;12.20;;;8.80;;
55732;SDS011;41637;52.364;9.910;2023-04-06T04:45:10;15.20;;;9.20;;
55732;SDS011;41637;52.364;9.910;2023-04-06T04:47:37;15.20;;;9.50;;
55732;SDS011;41637;52.364;9.910;2023-04-06T04:50:04;13.10;;;9.30;;
55732;SDS011;41637;52.364;9.910;2023-04-06T04:52:31;13.80;;;9.20;;
55732;SDS011;41637;52.364;9.910;2023-04-06T04:54:58;13.10;;;8.50;;
55732;SDS011;41637;52.364;9.910;2023-04-06T04:57:25;16.30;;;9.20;;
55732;SDS011;41637;52.364;9.910;2023-04-06T04:59:52;12.20;;;8.90;;
55732;SDS011;41637;52.364;9.910;2023-04-06T05:02:20;15.10;;;8.90;;
55732;SDS011;41637;52.364;9.910;2023-04-06T05:04:47;12.10;;;8.60;;
55732;SDS011;41637;52.364;9.910;2023-04-06T05:07:13;15.40;;;9.10;;
55732;SDS011;41637;52.364;9.910;2023-04-06T05:09:41;12.50;;;8.40;;
55732;SDS011;41637;52.364;9.910;2023-04-06T05:12:08;12.70;;;8.70;;
55732;SDS011;41637;52.364;9.910;2023-04-06T05:14:36;15.00;;;8.70;;
55732;SDS011;41637;52.364;9.910;2023-04-06T05:17:02;12.50;;;8.40;;
55732;SDS011;41637;52.364;9.910;2023-04-06T05:19:29;14.10;;;8.10;;
55732;SDS011;41637;52.364;9.910;2023-04-06T05:21:56;16.40;;;8.60;;
55732;SDS011;41637;52.364;9.910;2023-04-06T05:24:23;14.00;;;8.40;;
55732;SDS011;41637;52.364;9.910;2023-04-06T05:26:51;14.10;;;7.90;;
55732;SDS011;41637;52.364;9.910;2023-04-06T05:29:18;13.10;;;8.10;;
55732;SDS011;41637;52.364;9.910;2023-04-06T05:31:46;17.00;;;8.10;;
55732;SDS011;41637;52.364;9.910;2023-04-06T05:34:13;13.20;;;7.70;;
55732;SDS011;41637;52.364;9.910;2023-04-06T05:36:40;15.30;;;7.40;;
55732;SDS011;41637;52.364;9.910;2023-04-06T05:39:07;12.50;;;7.60;;
55732;SDS011;41637;52.364;9.910;2023-04-06T05:41:34;13.00;;;7.50;;
55732;SDS011;41637;52.364;9.910;2023-04-06T05:44:01;13.90;;;7.60;;
55732;SDS011;41637;52.364;9.910;2023-04-06T05:46:28;12.30;;;7.30;;
55732;SDS011;41637;52.364;9.910;2023-04-06T05:48:55;14.60;;;7.70;;
55732;SDS011;41637;52.364;9.910;2023-04-06T05:51:22;10.60;;;7.20;;
55732;SDS011;41637;52.364;9.910;2023-04-06T05:53:49;12.60;;;6.90;;
55732;SDS011;41637;52.364;9.910;2023-04-06T05:56:16;11.60;;;7.60;;
55732;SDS011;41637;52.364;9.910;2023-04-06T05:58:42;11.00;;;6.90;;
55732;SDS011;41637;52.364;9.910;2023-04-06T06:01:09;11.80;;;6.90;;
55732;SDS011;41637;52.364;9.910;2023-04-06T06:03:36;13.20;;;6.90;;
55732;SDS011;41637;52.364;9.910;2023-04-06T06:06:03;9.40;;;6.30;;
55732;SDS011;41637;52.364;9.910;2023-04-06T06:08:31;11.40;;;6.50;;
55732;SDS011;41637;52.364;9.910;2023-04-06T06:10:57;10.00;;;5.90;;
55732;SDS011;41637;52.364;9.910;2023-04-06T06:13:24;11.20;;;6.40;;
55732;SDS011;41637;52.364;9.910;2023-04-06T06:15:51;13.00;;;6.40;;
55732;SDS011;41637;52.364;9.910;2023-04-06T06:18:18;10.70;;;6.00;;
55732;SDS011;41637;52.364;9.910;2023-04-06T06:20:45;9.60;;;6.00;;
55732;SDS011;41637;52.364;9.910;2023-04-06T06:23:11;8.80;;;5.80;;
55732;SDS011;41637;52.364;9.910;2023-04-06T06:25:38;10.80;;;5.80;;
55732;SDS011;41637;52.364;9.910;2023-04-06T06:28:05;10.40;;;5.90;;
55732;SDS011;41637;52.364;9.910;2023-04-06T06:30:32;9.90;;;6.00;;
55732;SDS011;41637;52.364;9.910;2023-04-06T06:32:59;7.90;;;5.80;;
55732;SDS011;41637;52.364;9.910;2023-04-06T06:35:26;9.00;;;5.60;;
55732;SDS011;41637;52.364;9.910;2023-04-06T06:37:52;9.70;;;5.80;;
55732;SDS011;41637;52.364;9.910;2023-04-06T06:40:19;11.30;;;6.00;;
55732;SDS011;41637;52.364;9.910;2023-04-06T06:42:50;10.80;;;6.10;;
55732;SDS011;41637;52.364;9.910;2023-04-06T06:45:17;10.00;;;5.80;;
55732;SDS011;41637;52.364;9.910;2023-04-06T06:47:44;13.20;;;6.10;;
55732;SDS011;41637;52.364;9.910;2023-04-06T06:50:11;11.70;;;6.10;;
55732;SDS011;41637;52.364;9.910;2023-04-06T06:52:37;9.00;;;5.80;;
55732;SDS011;41637;52.364;9.910;2023-04-06T06:55:04;9.10;;;6.00;;
55732;SDS011;41637;52.364;9.910;2023-04-06T06:57:31;10.70;;;6.30;;
55732;SDS011;41637;52.364;9.910;2023-04-06T06:59:58;10.40;;;6.20;;
55732;SDS011;41637;52.364;9.910;2023-04-06T07:02:26;9.40;;;6.50;;
55732;SDS011;41637;52.364;9.910;2023-04-06T07:04:52;9.80;;;5.80;;
55732;SDS011;41637;52.364;9.910;2023-04-06T07:07:19;10.00;;;5.80;;
55732;SDS011;41637;52.364;9.910;2023-04-06T07:09:46;11.70;;;6.00;;
55732;SDS011;41637;52.364;9.910;2023-04-06T07:12:13;10.50;;;6.20;;
55732;SDS011;41637;52.364;9.910;2023-04-06T07:14:39;9.00;;;5.80;;
55732;SDS011;41637;52.364;9.910;2023-04-06T07:17:06;9.00;;;5.90;;
55732;SDS011;41637;52.364;9.910;2023-04-06T07:19:34;8.30;;;5.70;;
55732;SDS011;41637;52.364;9.910;2023-04-06T07:22:00;7.60;;;5.50;;
55732;SDS011;41637;52.364;9.910;2023-04-06T07:24:28;7.30;;;5.20;;
55732;SDS011;41637;52.364;9.910;2023-04-06T07:26:55;7.80;;;5.40;;
55732;SDS011;41637;52.364;9.910;2023-04-06T07:29:23;6.70;;;4.80;;
55732;SDS011;41637;52.364;9.910;2023-04-06T07:31:49;7.10;;;5.00;;
55732;SDS011;41637;52.364;9.910;2023-04-06T07:34:16;7.90;;;5.80;;
55732;SDS011;41637;52.364;9.910;2023-04-06T07:36:42;9.10;;;5.80;;
55732;SDS011;41637;52.364;9.910;2023-04-06T07:39:09;6.80;;;5.00;;
55732;SDS011;41637;52.364;9.910;2023-04-06T07:41:36;7.40;;;5.40;;
55732;SDS011;41637;52.364;9.910;2023-04-06T07:44:03;8.10;;;5.30;;
55732;SDS011;41637;52.364;9.910;2023-04-06T07:46:31;6.20;;;5.00;;
55732;SDS011;41637;52.364;9.910;2023-04-06T07:48:59;6.40;;;4.60;;
55732;SDS011;41637;52.364;9.910;2023-04-06T07:51:27;8.70;;;5.10;;
55732;SDS011;41637;52.364;9.910;2023-04-06T07:53:53;6.20;;;4.80;;
55732;SDS011;41637;52.364;9.910;2023-04-06T07:56:20;7.60;;;5.00;;
55732;SDS011;41637;52.364;9.910;2023-04-06T07:58:47;6.60;;;4.70;;
55732;SDS011;41637;52.364;9.910;2023-04-06T08:01:14;8.70;;;4.60;;
55732;SDS011;41637;52.364;9.910;2023-04-06T08:03:41;5.90;;;4.30;;
55732;SDS011;41637;52.364;9.910;2023-04-06T08:06:08;7.40;;;4.70;;
55732;SDS011;41637;52.364;9.910;2023-04-06T08:08:34;7.00;;;4.80;;
55732;SDS011;41637;52.364;9.910;2023-04-06T08:11:01;5.50;;;4.50;;
55732;SDS011;41637;52.364;9.910;2023-04-06T08:13:28;6.60;;;4.40;;
55732;SDS011;41637;52.364;9.910;2023-04-06T08:15:55;8.50;;;4.90;;
55732;SDS011;41637;52.364;9.910;2023-04-06T08:18:21;7.10;;;5.00;;
55732;SDS011;41637;52.364;9.910;2023-04-06T08:20:48;7.10;;;4.50;;
55732;SDS011;41637;52.364;9.910;2023-04-06T08:23:16;6.70;;;4.50;;
55732;SDS011;41637;52.364;9.910;2023-04-06T08:25:42;7.80;;;4.70;;
55732;SDS011;41637;52.364;9.910;2023-04-06T08:28:09;6.70;;;4.40;;
55732;SDS011;41637;52.364;9.910;2023-04-06T08:30:35;6.80;;;4.70;;
55732;SDS011;41637;52.364;9.910;2023-04-06T08:33:03;7.80;;;5.00;;
55732;SDS011;41637;52.364;9.910;2023-04-06T08:35:30;6.50;;;4.90;;
55732;SDS011;41637;52.364;9.910;2023-04-06T08:37:57;6.80;;;4.70;;
55732;SDS011;41637;52.364;9.910;2023-04-06T08:40:24;6.10;;;4.60;;
55732;SDS011;41637;52.364;9.910;2023-04-06T08:42:54;8.50;;;5.10;;
55732;SDS011;41637;52.364;9.910;2023-04-06T08:45:22;5.50;;;4.10;;
55732;SDS011;41637;52.364;9.910;2023-04-06T08:47:50;7.80;;;4.90;;
55732;SDS011;41637;52.364;9.910;2023-04-06T08:50:18;7.20;;;5.00;;
55732;SDS011;41637;52.364;9.910;2023-04-06T08:52:46;8.20;;;4.90;;
55732;SDS011;41637;52.364;9.910;2023-04-06T08:55:14;6.60;;;4.70;;
55732;SDS011;41637;52.364;9.910;2023-04-06T08:57:41;7.80;;;5.20;;
55732;SDS011;41637;52.364;9.910;2023-04-06T09:00:10;5.90;;;4.80;;
55732;SDS011;41637;52.364;9.910;2023-04-06T09:02:41;5.30;;;4.20;;
55732;SDS011;41637;52.364;9.910;2023-04-06T09:05:11;7.20;;;5.30;;
55732;SDS011;41637;52.364;9.910;2023-04-06T09:07:39;6.70;;;5.00;;
55732;SDS011;41637;52.364;9.910;2023-04-06T09:10:07;7.60;;;4.70;;
55732;SDS011;41637;52.364;9.910;2023-04-06T09:12:34;5.90;;;4.80;;
55732;SDS011;41637;52.364;9.910;2023-04-06T09:15:01;7.20;;;5.00;;
55732;SDS011;41637;52.364;9.910;2023-04-06T09:17:29;6.50;;;4.60;;
55732;SDS011;41637;52.364;9.910;2023-04-06T09:19:59;6.80;;;5.10;;
55732;SDS011;41637;52.364;9.910;2023-04-06T09:22:34;8.60;;;5.30;;
55732;SDS011;41637;52.364;9.910;2023-04-06T09:25:02;6.40;;;5.10;;
55732;SDS011;41637;52.364;9.910;2023-04-06T09:27:32;7.20;;;5.10;;
55732;SDS011;41637;52.364;9.910;2023-04-06T09:32:44;6.00;;;4.90;;
55732;SDS011;41637;52.364;9.910;2023-04-06T09:35:31;7.00;;;4.70;;
55732;SDS011;41637;52.364;9.910;2023-04-06T09:37:59;6.80;;;4.80;;
55732;SDS011;41637;52.364;9.910;2023-04-06T09:40:46;7.40;;;5.00;;
55732;SDS011;41637;52.364;9.910;2023-04-06T09:43:27;6.30;;;5.40;;
55732;SDS011;41637;52.364;9.910;2023-04-06T09:45:54;7.00;;;4.80;;
55732;SDS011;41637;52.364;9.910;2023-04-06T09:48:22;9.20;;;5.20;;
55732;SDS011;41637;52.364;9.910;2023-04-06T09:50:56;6.70;;;5.00;;
55732;SDS011;41637;52.364;9.910;2023-04-06T09:53:26;7.90;;;4.70;;
55732;SDS011;41637;52.364;9.910;2023-04-06T09:55:57;10.00;;;5.20;;
55732;SDS011;41637;52.364;9.910;2023-04-06T09:58:28;7.00;;;4.80;;
55732;SDS011;41637;52.364;9.910;2023-04-06T10:01:06;7.20;;;4.80;;
55732;SDS011;41637;52.364;9.910;2023-04-06T10:06:43;6.70;;;5.10;;
55732;SDS011;41637;52.364;9.910;2023-04-06T10:09:14;7.60;;;4.80;;
55732;SDS011;41637;52.364;9.910;2023-04-06T10:11:41;6.20;;;4.90;;
55732;SDS011;41637;52.364;9.910;2023-04-06T10:14:08;7.50;;;4.70;;
55732;SDS011;41637;52.364;9.910;2023-04-06T10:16:35;11.50;;;5.60;;
55732;SDS011;41637;52.364;9.910;2023-04-06T10:19:13;6.90;;;5.20;;
55732;SDS011;41637;52.364;9.910;2023-04-06T10:21:48;6.70;;;5.10;;
55732;SDS011;41637;52.364;9.910;2023-04-06T10:24:19;6.60;;;5.20;;
55732;SDS011;41637;52.364;9.910;2023-04-06T10:27:00;6.20;;;4.70;;
55732;SDS011;41637;52.364;9.910;2023-04-06T10:29:28;6.40;;;4.60;;
55732;SDS011;41637;52.364;9.910;2023-04-06T10:32:09;7.20;;;5.10;;
55732;SDS011;41637;52.364;9.910;2023-04-06T10:34:36;7.00;;;4.90;;
55732;SDS011;41637;52.364;9.910;2023-04-06T10:37:15;6.90;;;5.00;;
55732;SDS011;41637;52.364;9.910;2023-04-06T10:39:45;6.30;;;5.00;;
55732;SDS011;41637;52.364;9.910;2023-04-06T10:42:13;6.60;;;4.80;;
55732;SDS011;41637;52.364;9.910;2023-04-06T10:44:43;7.80;;;5.60;;
55732;SDS011;41637;52.364;9.910;2023-04-06T10:47:15;8.30;;;5.10;;
55732;SDS011;41637;52.364;9.910;2023-04-06T10:49:44;7.20;;;5.20;;
55732;SDS011;41637;52.364;9.910;2023-04-06T10:52:10;8.60;;;5.60;;
55732;SDS011;41637;52.364;9.910;2023-04-06T10:54:41;6.50;;;4.60;;
55732;SDS011;41637;52.364;9.910;2023-04-06T10:57:14;6.20;;;4.70;;
55732;SDS011;41637;52.364;9.910;2023-04-06T10:59:42;7.20;;;5.10;;
55732;SDS011;41637;52.364;9.910;2023-04-06T11:02:18;6.90;;;4.70;;
55732;SDS011;41637;52.364;9.910;2023-04-06T11:04:53;8.10;;;4.90;;
55732;SDS011;41637;52.364;9.910;2023-04-06T11:07:24;7.70;;;4.60;;
55732;SDS011;41637;52.364;9.910;2023-04-06T11:09:51;6.10;;;4.70;;
55732;SDS011;41637;52.364;9.910;2023-04-06T11:12:37;6.10;;;5.00;;
55732;SDS011;41637;52.364;9.910;2023-04-06T11:15:04;6.70;;;4.60;;
55732;SDS011;41637;52.364;9.910;2023-04-06T11:17:33;5.80;;;4.30;;
55732;SDS011;41637;52.364;9.910;2023-04-06T11:20:02;7.70;;;5.00;;
55732;SDS011;41637;52.364;9.910;2023-04-06T11:22:30;8.40;;;5.50;;
55732;SDS011;41637;52.364;9.910;2023-04-06T11:25:15;6.60;;;4.60;;
55732;SDS011;41637;52.364;9.910;2023-04-06T11:27:43;7.40;;;5.20;;
55732;SDS011;41637;52.364;9.910;2023-04-06T11:30:11;8.50;;;5.20;;
55732;SDS011;41637;52.364;9.910;2023-04-06T11:32:43;8.10;;;5.30;;
55732;SDS011;41637;52.364;9.910;2023-04-06T11:35:20;6.80;;;5.50;;
55732;SDS011;41637;52.364;9.910;2023-04-06T11:37:48;8.40;;;5.40;;
55732;SDS011;41637;52.364;9.910;2023-04-06T11:40:25;6.80;;;5.20;;
55732;SDS011;41637;52.364;9.910;2023-04-06T11:42:52;6.60;;;4.80;;
55732;SDS011;41637;52.364;9.910;2023-04-06T11:45:20;7.90;;;5.50;;
55732;SDS011;41637;52.364;9.910;2023-04-06T11:47:57;8.00;;;5.50;;
55732;SDS011;41637;52.364;9.910;2023-04-06T11:50:31;7.80;;;5.00;;
55732;SDS011;41637;52.364;9.910;2023-04-06T11:53:00;6.80;;;4.90;;
55732;SDS011;41637;52.364;9.910;2023-04-06T11:55:29;7.70;;;5.30;;
55732;SDS011;41637;52.364;9.910;2023-04-06T11:58:02;8.10;;;5.70;;
55732;SDS011;41637;52.364;9.910;2023-04-06T12:00:29;6.60;;;5.10;;
55732;SDS011;41637;52.364;9.910;2023-04-06T12:03:00;7.30;;;5.00;;
55732;SDS011;41637;52.364;9.910;2023-04-06T12:05:27;7.90;;;5.90;;
55732;SDS011;41637;52.364;9.910;2023-04-06T12:07:54;6.90;;;5.40;;
55732;SDS011;41637;52.364;9.910;2023-04-06T12:10:22;7.10;;;5.00;;
55732;SDS011;41637;52.364;9.910;2023-04-06T12:12:49;6.40;;;5.30;;
55732;SDS011;41637;52.364;9.910;2023-04-06T12:15:16;7.50;;;5.50;;
55732;SDS011;41637;52.364;9.910;2023-04-06T12:17:42;7.30;;;5.40;;
55732;SDS011;41637;52.364;9.910;2023-04-06T12:20:10;8.00;;;5.30;;
55732;SDS011;41637;52.364;9.910;2023-04-06T12:22:51;8.70;;;5.90;;
55732;SDS011;41637;52.364;9.910;2023-04-06T12:25:18;7.50;;;5.00;;
55732;SDS011;41637;52.364;9.910;2023-04-06T12:27:45;8.30;;;4.90;;
55732;SDS011;41637;52.364;9.910;2023-04-06T12:30:11;6.10;;;4.70;;
55732;SDS011;41637;52.364;9.910;2023-04-06T12:32:38;5.60;;;4.50;;
55732;SDS011;41637;52.364;9.910;2023-04-06T12:35:06;6.60;;;5.20;;
55732;SDS011;41637;52.364;9.910;2023-04-06T12:37:34;5.80;;;4.60;;
55732;SDS011;41637;52.364;9.910;2023-04-06T12:40:01;8.10;;;5.20;;
55732;SDS011;41637;52.364;9.910;2023-04-06T12:42:29;6.00;;;5.00;;
55732;SDS011;41637;52.364;9.910;2023-04-06T12:44:56;6.00;;;5.30;;
55732;SDS011;41637;52.364;9.910;2023-04-06T12:47:23;6.40;;;4.50;;
55732;SDS011;41637;52.364;9.910;2023-04-06T12:49:52;5.80;;;5.20;;
55732;SDS011;41637;52.364;9.910;2023-04-06T12:52:21;4.90;;;4.10;;
55732;SDS011;41637;52.364;9.910;2023-04-06T12:54:47;4.00;;;3.60;;
55732;SDS011;41637;52.364;9.910;2023-04-06T12:57:16;5.30;;;4.80;;
55732;SDS011;41637;52.364;9.910;2023-04-06T12:59:43;6.40;;;5.40;;
55732;SDS011;41637;52.364;9.910;2023-04-06T13:02:11;6.00;;;5.30;;
55732;SDS011;41637;52.364;9.910;2023-04-06T13:04:38;6.50;;;5.90;;
55732;SDS011;41637;52.364;9.910;2023-04-06T13:07:05;6.30;;;5.20;;
55732;SDS011;41637;52.364;9.910;2023-04-06T13:09:31;5.50;;;4.70;;
55732;SDS011;41637;52.364;9.910;2023-04-06T13:11:58;5.40;;;4.60;;
55732;SDS011;41637;52.364;9.910;2023-04-06T13:14:25;5.50;;;4.90;;
55732;SDS011;41637;52.364;9.910;2023-04-06T13:16:54;6.10;;;5.30;;
55732;SDS011;41637;52.364;9.910;2023-04-06T13:19:21;6.70;;;5.90;;
55732;SDS011;41637;52.364;9.910;2023-04-06T13:21:48;6.10;;;5.60;;
55732;SDS011;41637;52.364;9.910;2023-04-06T13:24:15;6.70;;;5.90;;
55732;SDS011;41637;52.364;9.910;2023-04-06T13:26:43;6.20;;;5.10;;
55732;SDS011;41637;52.364;9.910;2023-04-06T13:29:10;5.20;;;4.10;;
55732;SDS011;41637;52.364;9.910;2023-04-06T13:31:36;5.80;;;4.90;;
55732;SDS011;41637;52.364;9.910;2023-04-06T13:34:04;5.30;;;4.60;;
55732;SDS011;41637;52.364;9.910;2023-04-06T13:36:31;5.30;;;4.50;;
55732;SDS011;41637;52.364;9.910;2023-04-06T13:38:58;4.20;;;3.50;;
55732;SDS011;41637;52.364;9.910;2023-04-06T13:41:25;5.00;;;4.00;;
55732;SDS011;41637;52.364;9.910;2023-04-06T13:43:52;6.10;;;4.90;;
55732;SDS011;41637;52.364;9.910;2023-04-06T13:46:19;4.80;;;4.30;;
55732;SDS011;41637;52.364;9.910;2023-04-06T13:48:46;4.40;;;3.90;;
55732;SDS011;41637;52.364;9.910;2023-04-06T13:51:14;5.00;;;4.50;;
55732;SDS011;41637;52.364;9.910;2023-04-06T13:53:41;4.90;;;4.30;;
55732;SDS011;41637;52.364;9.910;2023-04-06T13:56:08;5.50;;;5.00;;
55732;SDS011;41637;52.364;9.910;2023-04-06T13:58:35;5.70;;;4.00;;
55732;SDS011;41637;52.364;9.910;2023-04-06T14:01:03;5.20;;;4.40;;
55732;SDS011;41637;52.364;9.910;2023-04-06T14:03:36;5.30;;;4.30;;
55732;SDS011;41637;52.364;9.910;2023-04-06T14:06:12;4.70;;;4.00;;
55732;SDS011;41637;52.364;9.910;2023-04-06T14:08:42;5.10;;;4.00;;
55732;SDS011;41637;52.364;9.910;2023-04-06T14:11:12;4.40;;;4.00;;
55732;SDS011;41637;52.364;9.910;2023-04-06T14:13:39;5.00;;;4.50;;
55732;SDS011;41637;52.364;9.910;2023-04-06T14:16:06;5.50;;;4.20;;
55732;SDS011;41637;52.364;9.910;2023-04-06T14:18:33;5.80;;;4.70;;
55732;SDS011;41637;52.364;9.910;2023-04-06T14:21:00;5.40;;;4.20;;
55732;SDS011;41637;52.364;9.910;2023-04-06T14:23:27;4.80;;;4.10;;
55732;SDS011;41637;52.364;9.910;2023-04-06T14:26:04;4.20;;;3.80;;
55732;SDS011;41637;52.364;9.910;2023-04-06T14:28:32;5.60;;;4.40;;
55732;SDS011;41637;52.364;9.910;2023-04-06T14:31:09;6.20;;;5.00;;
55732;SDS011;41637;52.364;9.910;2023-04-06T14:33:38;5.40;;;4.70;;
55732;SDS011;41637;52.364;9.910;2023-04-06T14:36:06;5.60;;;4.30;;
55732;SDS011;41637;52.364;9.910;2023-04-06T14:38:33;4.70;;;4.00;;
55732;SDS011;41637;52.364;9.910;2023-04-06T14:41:00;5.10;;;4.60;;
55732;SDS011;41637;52.364;9.910;2023-04-06T14:43:27;4.70;;;4.20;;
55732;SDS011;41637;52.364;9.910;2023-04-06T14:45:54;5.80;;;4.80;;
55732;SDS011;41637;52.364;9.910;2023-04-06T14:48:21;6.00;;;5.10;;